createdAt,value
2022-08-28T00:00:02.741Z,3.92
2022-08-28T00:02:29.543Z,5.95
2022-08-28T00:04:56.398Z,4.22
2022-08-28T00:07:23.253Z,4.05
2022-08-28T00:09:50.015Z,3.85
2022-08-28T00:12:17.070Z,4.57
2022-08-28T00:14:44.191Z,4.10
2022-08-28T00:17:11.376Z,4.05
2022-08-28T00:19:38.911Z,5.00
2022-08-28T00:22:07.605Z,4.37
2022-08-28T00:24:35.256Z,3.67
2022-08-28T00:27:20.346Z,4.50
2022-08-28T00:29:47.374Z,4.50
2022-08-28T00:32:14.185Z,5.03
2022-08-28T00:34:41.115Z,4.12
2022-08-28T00:37:08.056Z,3.97
2022-08-28T00:39:34.874Z,5.12
2022-08-28T00:42:02.055Z,4.75
2022-08-28T00:44:29.409Z,5.12
2022-08-28T00:46:58.036Z,5.03
2022-08-28T00:49:30.424Z,3.90
2022-08-28T00:52:06.106Z,4.87
2022-08-28T00:54:34.975Z,4.35
2022-08-28T00:57:05.256Z,4.50
2022-08-28T00:59:31.962Z,4.22
2022-08-28T01:01:59.727Z,5.45
2022-08-28T01:04:29.733Z,4.65
2022-08-28T01:06:58.685Z,4.10
2022-08-28T01:09:29.474Z,3.83
2022-08-28T01:12:03.279Z,4.15
2022-08-28T01:14:32.453Z,4.95
2022-08-28T01:16:59.438Z,4.68
2022-08-28T01:19:35.287Z,4.37
2022-08-28T01:22:50.246Z,4.50
2022-08-28T01:25:20.196Z,3.83
2022-08-28T01:27:47.056Z,4.05
2022-08-28T01:30:17.666Z,4.10
2022-08-28T01:32:48.087Z,4.00
2022-08-28T01:35:19.155Z,4.40
2022-08-28T01:37:46.580Z,4.18
2022-08-28T01:40:17.816Z,4.30
2022-08-28T01:42:45.109Z,4.45
2022-08-28T01:45:15.917Z,4.05
2022-08-28T01:47:44.721Z,4.18
2022-08-28T01:50:15.610Z,4.70
2022-08-28T01:52:42.799Z,4.40
2022-08-28T01:55:11.091Z,4.40
2022-08-28T01:57:50.658Z,4.93
2022-08-28T02:02:44.867Z,4.28
2022-08-28T02:05:12.187Z,3.85
2022-08-28T02:07:39.230Z,4.80
2022-08-28T02:10:08.344Z,4.53
2022-08-28T02:12:36.048Z,3.72
2022-08-28T02:15:04.091Z,3.97
2022-08-28T02:17:30.860Z,4.22
2022-08-28T02:19:57.634Z,3.90
2022-08-28T02:22:24.348Z,4.32
2022-08-28T02:24:51.239Z,4.45
2022-08-28T02:27:18.492Z,4.82
2022-08-28T02:29:45.543Z,3.92
2022-08-28T02:32:12.601Z,3.92
2022-08-28T02:34:40.442Z,4.22
2022-08-28T02:37:08.933Z,4.45
2022-08-28T02:39:35.804Z,4.75
2022-08-28T02:42:02.658Z,3.90
2022-08-28T02:44:29.381Z,4.30
2022-08-28T02:46:56.129Z,3.85
2022-08-28T02:49:26.017Z,4.72
2022-08-28T02:51:58.709Z,4.07
2022-08-28T02:54:26.538Z,3.78
2022-08-28T02:56:54.478Z,4.50
2022-08-28T02:59:21.546Z,4.35
2022-08-28T03:01:48.733Z,3.75
2022-08-28T03:04:15.769Z,4.30
2022-08-28T03:06:42.643Z,4.43
2022-08-28T03:09:09.658Z,4.07
2022-08-28T03:11:37.165Z,4.70
2022-08-28T03:14:05.176Z,4.43
2022-08-28T03:16:32.631Z,5.12
2022-08-28T03:18:59.625Z,3.85
2022-08-28T03:21:26.466Z,4.70
2022-08-28T03:23:53.181Z,4.53
2022-08-28T03:26:21.088Z,4.60
2022-08-28T03:28:50.927Z,4.90
2022-08-28T03:31:22.186Z,4.45
2022-08-28T03:33:49.587Z,4.82
2022-08-28T03:36:21.664Z,4.03
2022-08-28T03:38:49.327Z,4.15
2022-08-28T03:41:18.494Z,5.20
2022-08-28T03:43:45.596Z,4.18
2022-08-28T03:46:15.480Z,5.18
2022-08-28T03:48:44.952Z,4.10
2022-08-28T03:51:18.191Z,5.00
2022-08-28T03:53:45.186Z,4.30
2022-08-28T03:56:15.711Z,4.35
2022-08-28T03:58:43.237Z,3.53
2022-08-28T04:01:10.472Z,3.35
2022-08-28T04:03:37.517Z,3.42
2022-08-28T04:06:04.393Z,4.12
2022-08-28T04:08:31.660Z,4.55
2022-08-28T04:11:00.999Z,4.50
2022-08-28T04:13:28.467Z,3.67
2022-08-28T04:16:07.979Z,4.22
2022-08-28T04:21:08.035Z,4.18
2022-08-28T04:23:45.259Z,3.78
2022-08-28T04:26:15.087Z,3.85
2022-08-28T04:28:42.059Z,4.07
2022-08-28T04:31:09.108Z,4.75
2022-08-28T04:33:37.420Z,4.80
2022-08-28T04:36:06.674Z,5.72
2022-08-28T04:38:33.761Z,4.78
2022-08-28T04:41:06.792Z,3.80
2022-08-28T04:43:33.960Z,3.53
2022-08-28T04:46:08.147Z,3.55
2022-08-28T04:48:35.883Z,4.45
2022-08-28T04:51:05.852Z,4.00
2022-08-28T04:53:33.191Z,3.90
2022-08-28T04:56:00.856Z,3.83
2022-08-28T04:58:28.191Z,3.58
2022-08-28T05:00:55.269Z,3.20
2022-08-28T05:03:23.132Z,3.92
2022-08-28T05:05:53.305Z,3.10
2022-08-28T05:08:23.831Z,3.20
2022-08-28T05:10:51.141Z,3.75
2022-08-28T05:13:18.758Z,3.53
2022-08-28T05:15:49.146Z,3.28
2022-08-28T05:18:18.665Z,4.10
2022-08-28T05:23:15.626Z,2.78
2022-08-28T05:25:45.569Z,3.28
2022-08-28T05:28:13.745Z,3.50
2022-08-28T05:30:42.137Z,3.08
2022-08-28T05:33:10.572Z,2.97
2022-08-28T05:35:40.226Z,3.50
2022-08-28T05:38:07.755Z,3.53
2022-08-28T05:40:41.127Z,3.50
2022-08-28T05:43:07.827Z,2.85
2022-08-28T05:45:34.620Z,2.45
2022-08-28T05:48:01.375Z,2.53
2022-08-28T05:50:28.143Z,3.37
2022-08-28T05:52:54.877Z,2.75
2022-08-28T05:55:21.916Z,2.50
2022-08-28T05:57:48.710Z,2.80
2022-08-28T06:00:15.652Z,2.67
2022-08-28T06:02:42.744Z,2.50
2022-08-28T06:05:13.000Z,2.83
2022-08-28T06:07:41.300Z,2.92
2022-08-28T06:10:10.621Z,2.90
2022-08-28T06:12:38.041Z,2.90
2022-08-28T06:15:06.120Z,3.10
2022-08-28T06:17:33.077Z,2.75
2022-08-28T06:19:59.828Z,2.72
2022-08-28T06:22:26.589Z,2.55
2022-08-28T06:24:54.092Z,3.12
2022-08-28T06:27:20.958Z,3.65
2022-08-28T06:29:47.734Z,3.00
2022-08-28T06:32:14.552Z,2.70
2022-08-28T06:34:41.672Z,3.05
2022-08-28T06:37:09.946Z,2.55
2022-08-28T06:39:36.813Z,3.25
2022-08-28T06:42:03.891Z,2.87
2022-08-28T06:44:32.437Z,2.58
2022-08-28T06:47:00.537Z,3.10
2022-08-28T06:49:27.487Z,2.70
2022-08-28T06:51:56.071Z,2.90
2022-08-28T06:54:23.623Z,2.22
2022-08-28T06:56:51.796Z,2.80
2022-08-28T06:59:18.568Z,4.10
2022-08-28T07:01:45.463Z,3.08
2022-08-28T07:04:14.665Z,2.55
2022-08-28T07:06:47.115Z,2.80
2022-08-28T07:09:15.113Z,2.90
2022-08-28T07:11:46.772Z,2.60
2022-08-28T07:14:13.556Z,4.87
2022-08-28T07:16:40.673Z,3.12
2022-08-28T07:19:10.651Z,3.00
2022-08-28T07:21:40.107Z,2.53
2022-08-28T07:26:35.906Z,2.70
2022-08-28T07:29:10.073Z,2.70
2022-08-28T07:31:41.025Z,3.05
2022-08-28T07:34:09.779Z,2.85
2022-08-28T07:36:37.224Z,2.55
2022-08-28T07:39:05.418Z,2.78
2022-08-28T07:41:35.804Z,3.12
2022-08-28T07:44:21.407Z,3.45
2022-08-28T07:46:48.166Z,3.60
2022-08-28T07:49:18.731Z,3.90
2022-08-28T07:51:45.681Z,3.42
2022-08-28T07:54:16.868Z,2.93
2022-08-28T07:56:45.007Z,3.40
2022-08-28T07:59:12.108Z,3.33
2022-08-28T08:01:46.836Z,4.37
2022-08-28T08:04:16.267Z,2.90
2022-08-28T08:09:13.204Z,3.33
2022-08-28T08:11:40.468Z,4.25
2022-08-28T08:14:07.679Z,3.20
2022-08-28T08:16:38.916Z,3.65
2022-08-28T08:19:06.433Z,3.92
2022-08-28T08:21:33.315Z,3.78
2022-08-28T08:24:00.090Z,2.83
2022-08-28T08:26:28.581Z,2.50
2022-08-28T08:28:56.340Z,3.13
2022-08-28T08:31:33.272Z,3.53
2022-08-28T08:34:04.970Z,2.90
2022-08-28T08:36:34.840Z,2.75
2022-08-28T08:39:02.291Z,2.40
2022-08-28T08:41:39.251Z,2.92
2022-08-28T08:44:40.530Z,2.72
2022-08-28T08:47:22.655Z,2.60
2022-08-28T08:50:00.515Z,2.83
2022-08-28T08:52:57.995Z,2.72
2022-08-28T08:55:28.957Z,2.40
2022-08-28T08:58:13.049Z,2.55
2022-08-28T09:01:05.446Z,2.60
2022-08-28T09:03:54.011Z,2.90
2022-08-28T09:06:29.894Z,2.67
2022-08-28T09:09:02.105Z,2.70
2022-08-28T09:11:56.934Z,2.50
2022-08-28T09:14:37.056Z,3.10
2022-08-28T09:17:06.986Z,3.30
2022-08-28T09:19:34.442Z,2.37
2022-08-28T09:22:01.766Z,3.35
2022-08-28T09:24:33.576Z,2.42
2022-08-28T09:27:00.524Z,2.92
2022-08-28T09:29:31.851Z,2.97
2022-08-28T09:32:12.412Z,2.97
2022-08-28T09:34:39.319Z,3.45
2022-08-28T09:37:08.537Z,3.20
2022-08-28T09:39:38.828Z,3.08
2022-08-28T09:42:33.371Z,3.17
2022-08-28T09:45:15.137Z,3.42
2022-08-28T09:47:46.354Z,2.90
2022-08-28T09:50:32.756Z,2.90
2022-08-28T09:53:17.794Z,3.30
2022-08-28T09:56:05.873Z,2.62
2022-08-28T09:58:39.526Z,3.17
2022-08-28T10:01:15.882Z,2.78
2022-08-28T10:04:16.841Z,2.67
2022-08-28T10:06:59.902Z,2.00
2022-08-28T10:09:39.087Z,2.50
2022-08-28T10:12:46.020Z,2.70
2022-08-28T10:15:19.604Z,3.33
2022-08-28T10:18:18.831Z,3.97
2022-08-28T10:20:45.669Z,2.78
2022-08-28T10:23:17.019Z,2.87
2022-08-28T10:26:02.340Z,2.53
2022-08-28T10:28:51.022Z,2.80
2022-08-28T10:32:09.844Z,2.80
2022-08-28T10:34:42.327Z,2.08
2022-08-28T10:37:30.879Z,2.47
2022-08-28T10:40:09.078Z,2.47
2022-08-28T10:42:40.753Z,2.37
2022-08-28T10:45:14.780Z,2.45
2022-08-28T10:47:51.479Z,2.78
2022-08-28T10:50:23.799Z,2.35
2022-08-28T10:53:15.126Z,2.35
2022-08-28T10:55:56.241Z,2.30
2022-08-28T10:58:26.323Z,2.65
2022-08-28T11:01:00.055Z,2.62
2022-08-28T11:03:35.812Z,2.45
2022-08-28T11:06:14.513Z,2.05
2022-08-28T11:08:41.994Z,2.12
2022-08-28T11:11:15.093Z,2.50
2022-08-28T11:14:25.623Z,2.62
2022-08-28T11:16:56.487Z,2.30
2022-08-28T11:19:43.416Z,2.58
2022-08-28T11:22:18.273Z,2.97
2022-08-28T11:24:55.141Z,2.47
2022-08-28T11:27:36.630Z,2.85
2022-08-28T11:30:06.718Z,2.45
2022-08-28T11:32:36.616Z,2.85
2022-08-28T11:35:27.673Z,2.83
2022-08-28T11:37:55.314Z,2.45
2022-08-28T11:40:31.986Z,2.70
2022-08-28T11:43:16.621Z,2.80
2022-08-28T11:45:46.763Z,2.42
2022-08-28T11:48:23.519Z,3.00
2022-08-28T11:50:59.231Z,2.90
2022-08-28T11:53:51.826Z,2.60
2022-08-28T11:56:40.809Z,2.53
2022-08-28T11:59:10.347Z,2.35
2022-08-28T12:01:37.769Z,2.50
2022-08-28T12:04:09.898Z,2.80
2022-08-28T12:06:48.641Z,2.62
2022-08-28T12:09:40.309Z,2.62
2022-08-28T12:12:33.086Z,2.70
2022-08-28T12:15:03.141Z,3.15
2022-08-28T12:17:44.055Z,2.70
2022-08-28T12:20:21.144Z,3.15
2022-08-28T12:22:57.574Z,3.20
2022-08-28T12:25:35.364Z,3.22
2022-08-28T12:28:27.432Z,3.28
2022-08-28T12:31:18.228Z,2.70
2022-08-28T12:33:57.976Z,2.55
2022-08-28T12:36:28.855Z,2.80
2022-08-28T12:39:00.673Z,2.92
2022-08-28T12:41:28.262Z,2.87
2022-08-28T12:43:58.538Z,2.92
2022-08-28T12:46:32.672Z,2.47
2022-08-28T12:49:06.046Z,2.40
2022-08-28T12:51:35.986Z,2.97
2022-08-28T12:54:08.433Z,2.92
2022-08-28T12:56:38.222Z,3.65
2022-08-28T12:59:40.231Z,3.10
2022-08-28T13:02:18.928Z,2.70
2022-08-28T13:07:27.810Z,2.65
2022-08-28T13:09:56.976Z,3.03
2022-08-28T13:12:37.794Z,2.42
2022-08-28T13:15:43.198Z,3.00
2022-08-28T13:18:10.312Z,2.83
2022-08-28T13:20:38.465Z,2.72
2022-08-28T13:23:05.724Z,2.65
2022-08-28T13:25:36.332Z,2.95
2022-08-28T13:28:13.335Z,3.28
2022-08-28T13:30:40.770Z,3.12
2022-08-28T13:33:16.325Z,3.10
2022-08-28T13:35:43.312Z,3.00
2022-08-28T13:38:13.410Z,3.05
2022-08-28T13:40:59.156Z,2.65
2022-08-28T13:43:30.236Z,2.33
2022-08-28T13:45:58.147Z,3.65
2022-08-28T13:48:26.902Z,2.70
2022-08-28T13:51:10.218Z,3.00
2022-08-28T13:53:38.740Z,2.83
2022-08-28T13:56:06.362Z,2.70
2022-08-28T13:58:33.510Z,2.70
2022-08-28T14:01:00.818Z,2.33
2022-08-28T14:03:37.863Z,2.78
2022-08-28T14:06:17.502Z,2.70
2022-08-28T14:08:45.823Z,3.22
2022-08-28T14:11:15.202Z,2.55
2022-08-28T14:13:47.012Z,2.58
2022-08-28T14:16:22.962Z,3.08
2022-08-28T14:18:50.582Z,3.05
2022-08-28T14:21:17.390Z,2.40
2022-08-28T14:23:44.263Z,3.20
2022-08-28T14:26:11.403Z,3.08
2022-08-28T14:28:38.621Z,3.30
2022-08-28T14:31:11.006Z,3.30
2022-08-28T14:33:45.247Z,2.50
2022-08-28T14:36:19.053Z,2.95
2022-08-28T14:38:45.997Z,2.87
2022-08-28T14:41:14.898Z,3.17
2022-08-28T14:46:14.457Z,2.75
2022-08-28T14:48:41.393Z,3.20
2022-08-28T14:51:08.349Z,2.70
2022-08-28T14:53:35.150Z,2.70
2022-08-28T14:56:01.997Z,2.67
2022-08-28T14:58:28.808Z,3.05
2022-08-28T15:00:55.663Z,3.30
2022-08-28T15:03:22.526Z,2.95
2022-08-28T15:06:03.644Z,3.08
2022-08-28T15:08:30.722Z,3.80
2022-08-28T15:10:57.728Z,2.92
2022-08-28T15:13:24.957Z,3.05
2022-08-28T15:16:20.387Z,3.03
2022-08-28T15:18:47.754Z,3.10
2022-08-28T15:21:27.164Z,3.12
2022-08-28T15:23:56.479Z,3.40
2022-08-28T15:26:24.965Z,3.03
2022-08-28T15:28:55.788Z,3.03
2022-08-28T15:31:25.547Z,3.90
2022-08-28T15:33:52.731Z,3.00
2022-08-28T15:36:20.242Z,3.20
2022-08-28T15:39:05.884Z,3.08
2022-08-28T15:41:32.648Z,3.37
2022-08-28T15:44:01.860Z,3.55
2022-08-28T15:49:02.657Z,3.97
2022-08-28T15:51:30.724Z,3.40
2022-08-28T15:53:58.114Z,3.75
2022-08-28T15:56:25.722Z,3.40
2022-08-28T15:58:52.942Z,3.45
2022-08-28T16:01:21.094Z,3.45
2022-08-28T16:03:47.977Z,3.97
2022-08-28T16:06:18.222Z,3.62
2022-08-28T16:08:46.071Z,3.72
2022-08-28T16:11:20.873Z,4.20
2022-08-28T16:13:47.706Z,3.58
2022-08-28T16:16:14.603Z,3.78
2022-08-28T16:18:42.637Z,4.53
2022-08-28T16:21:11.075Z,4.93
2022-08-28T16:23:38.835Z,4.28
2022-08-28T16:26:07.779Z,4.43
2022-08-28T16:28:35.922Z,4.70
2022-08-28T16:31:07.299Z,4.53
2022-08-28T16:33:35.617Z,4.70
2022-08-28T16:36:09.914Z,4.47
2022-08-28T16:38:42.171Z,4.82
2022-08-28T16:41:21.911Z,4.40
2022-08-28T16:43:50.000Z,4.82
2022-08-28T16:46:20.185Z,3.62
2022-08-28T16:48:47.954Z,4.30
2022-08-28T16:51:16.238Z,5.43
2022-08-28T16:53:43.360Z,4.70
2022-08-28T16:56:12.946Z,3.05
2022-08-28T16:58:41.290Z,3.60
2022-08-28T17:01:08.917Z,3.90
2022-08-28T17:06:26.939Z,3.30
2022-08-28T17:08:56.866Z,3.45
2022-08-28T17:11:26.219Z,3.70
2022-08-28T17:13:53.429Z,3.72
2022-08-28T17:16:20.953Z,3.65
2022-08-28T17:18:52.627Z,3.60
2022-08-28T17:21:39.861Z,3.30
2022-08-28T17:24:07.257Z,4.10
2022-08-28T17:26:34.282Z,4.07
2022-08-28T17:29:01.163Z,4.45
2022-08-28T17:31:28.007Z,3.85
2022-08-28T17:33:54.842Z,4.00
2022-08-28T17:36:33.585Z,4.47
2022-08-28T17:41:33.691Z,4.25
2022-08-28T17:44:01.729Z,3.65
2022-08-28T17:46:31.878Z,5.25
2022-08-28T17:49:03.125Z,5.25
2022-08-28T17:51:41.865Z,4.50
2022-08-28T17:54:18.681Z,4.50
2022-08-28T17:56:45.731Z,4.55
2022-08-28T17:59:13.436Z,4.60
2022-08-28T18:01:41.902Z,4.50
2022-08-28T18:04:09.255Z,4.35
2022-08-28T18:06:36.465Z,4.60
2022-08-28T18:09:04.928Z,4.35
2022-08-28T18:11:31.811Z,4.43
2022-08-28T18:13:59.953Z,4.50
2022-08-28T18:16:31.152Z,4.80
2022-08-28T18:19:00.587Z,4.03
2022-08-28T18:21:28.243Z,4.25
2022-08-28T18:23:55.199Z,5.20
2022-08-28T18:26:22.087Z,4.80
2022-08-28T18:28:49.592Z,5.32
2022-08-28T18:31:16.479Z,5.85
2022-08-28T18:33:43.411Z,4.87
2022-08-28T18:36:12.340Z,5.65
2022-08-28T18:38:40.299Z,4.78
2022-08-28T18:41:08.736Z,5.68
2022-08-28T18:43:37.829Z,5.53
2022-08-28T18:46:06.282Z,5.68
2022-08-28T18:48:33.361Z,5.87
2022-08-28T18:51:02.010Z,5.20
2022-08-28T18:53:29.571Z,5.60
2022-08-28T18:55:56.805Z,5.80
2022-08-28T18:58:28.171Z,5.90
2022-08-28T19:00:55.228Z,5.53
2022-08-28T19:03:22.811Z,5.78
2022-08-28T19:05:50.193Z,5.18
2022-08-28T19:08:17.256Z,6.15
2022-08-28T19:10:45.394Z,5.45
2022-08-28T19:13:12.386Z,5.05
2022-08-28T19:15:39.286Z,6.93
2022-08-28T19:18:06.858Z,5.55
2022-08-28T19:20:34.485Z,4.90
2022-08-28T19:23:01.573Z,5.03
2022-08-28T19:25:30.817Z,5.78
2022-08-28T19:27:59.888Z,5.22
2022-08-28T19:30:29.999Z,5.72
2022-08-28T19:32:56.937Z,5.05
2022-08-28T19:35:24.925Z,4.55
2022-08-28T19:37:55.607Z,5.15
2022-08-28T19:40:24.451Z,5.57
2022-08-28T19:42:51.796Z,5.47
2022-08-28T19:45:20.755Z,4.72
2022-08-28T19:47:48.265Z,6.07
2022-08-28T19:50:15.689Z,5.62
2022-08-28T19:52:46.388Z,5.07
2022-08-28T19:55:20.048Z,5.60
2022-08-28T19:57:48.670Z,6.72
2022-08-28T20:00:21.752Z,5.90
2022-08-28T20:02:49.824Z,6.12
2022-08-28T20:05:16.888Z,6.50
2022-08-28T20:07:44.591Z,6.25
2022-08-28T20:10:12.998Z,6.05
2022-08-28T20:12:40.165Z,5.15
2022-08-28T20:15:16.331Z,4.50
2022-08-28T20:17:43.708Z,5.85
2022-08-28T20:20:18.175Z,4.97
2022-08-28T20:22:45.083Z,5.23
2022-08-28T20:25:12.297Z,6.28
2022-08-28T20:27:41.576Z,6.28
2022-08-28T20:30:11.142Z,6.37
2022-08-28T20:32:40.377Z,5.55
2022-08-28T20:35:09.964Z,5.18
2022-08-28T20:37:44.667Z,5.57
2022-08-28T20:40:18.807Z,6.03
2022-08-28T20:42:46.681Z,5.07
2022-08-28T20:45:15.767Z,5.85
2022-08-28T20:47:43.029Z,5.40
2022-08-28T20:50:10.394Z,5.78
2022-08-28T20:52:37.483Z,5.87
2022-08-28T20:55:05.565Z,5.30
2022-08-28T20:57:32.317Z,4.95
2022-08-28T21:00:02.255Z,5.07
2022-08-28T21:02:32.261Z,4.97
2022-08-28T21:05:00.323Z,4.80
2022-08-28T21:07:27.614Z,4.68
2022-08-28T21:10:06.963Z,5.07
2022-08-28T21:12:38.974Z,5.25
2022-08-28T21:15:12.643Z,5.22
2022-08-28T21:17:40.139Z,4.30
2022-08-28T21:20:10.840Z,4.70
2022-08-28T21:22:38.642Z,5.30
2022-08-28T21:25:07.355Z,6.40
2022-08-28T21:27:34.822Z,5.70
2022-08-28T21:30:02.012Z,5.45
2022-08-28T21:32:30.283Z,5.32
2022-08-28T21:34:57.194Z,5.75
2022-08-28T21:37:24.023Z,4.30
2022-08-28T21:39:51.103Z,4.82
2022-08-28T21:42:18.070Z,5.37
2022-08-28T21:44:51.456Z,5.70
2022-08-28T21:47:19.754Z,5.12
2022-08-28T21:49:49.736Z,5.55
2022-08-28T21:52:18.544Z,5.18
2022-08-28T21:54:45.680Z,4.57
2022-08-28T21:57:12.496Z,5.57
2022-08-28T21:59:39.310Z,4.72
2022-08-28T22:02:06.412Z,3.78
2022-08-28T22:04:33.482Z,4.53
2022-08-28T22:07:00.316Z,4.40
2022-08-28T22:09:29.176Z,4.05
2022-08-28T22:11:56.038Z,4.70
2022-08-28T22:14:24.694Z,4.10
2022-08-28T22:16:51.591Z,3.97
2022-08-28T22:19:18.423Z,4.18
2022-08-28T22:22:03.675Z,3.80
2022-08-28T22:24:30.679Z,3.83
2022-08-28T22:26:57.791Z,4.18
2022-08-28T22:29:25.255Z,3.60
2022-08-28T22:31:52.875Z,3.37
2022-08-28T22:34:20.052Z,3.10
2022-08-28T22:36:47.151Z,4.12
2022-08-28T22:39:14.094Z,3.35
2022-08-28T22:41:41.775Z,3.12
2022-08-28T22:44:08.538Z,3.00
2022-08-28T22:46:36.168Z,3.20
2022-08-28T22:49:04.105Z,2.87
2022-08-28T22:51:34.040Z,2.97
2022-08-28T22:54:00.903Z,3.45
2022-08-28T22:56:27.730Z,3.30
2022-08-28T22:58:54.595Z,2.85
2022-08-28T23:01:24.987Z,2.62
2022-08-28T23:03:52.493Z,2.92
2022-08-28T23:06:20.587Z,2.03
2022-08-28T23:08:47.828Z,2.62
2022-08-28T23:11:15.280Z,3.17
2022-08-28T23:13:42.100Z,3.00
2022-08-28T23:16:09.296Z,2.35
2022-08-28T23:19:06.748Z,2.72
2022-08-28T23:21:26.219Z,2.60
2022-08-28T23:23:53.405Z,2.70
2022-08-28T23:26:20.253Z,3.22
2022-08-28T23:28:47.150Z,2.83
2022-08-28T23:31:14.011Z,2.65
2022-08-28T23:33:41.364Z,2.83
2022-08-28T23:36:08.797Z,2.90
2022-08-28T23:38:39.669Z,2.92
2022-08-28T23:41:07.900Z,2.87
2022-08-28T23:43:34.929Z,3.47
2022-08-28T23:46:02.008Z,2.53
2022-08-28T23:48:29.420Z,2.28
2022-08-28T23:50:56.169Z,3.15
2022-08-28T23:53:22.928Z,2.80
2022-08-28T23:55:50.366Z,2.75
2022-08-28T23:58:20.784Z,2.80
